createdAt,value
2022-11-24T00:00:05.869Z,5.25
2022-11-24T00:01:05.853Z,5.26
2022-11-24T00:02:05.976Z,5.25
2022-11-24T00:03:06.015Z,5.26
2022-11-24T00:04:05.806Z,5.25
2022-11-24T00:05:05.792Z,5.26
2022-11-24T00:06:05.782Z,5.26
2022-11-24T00:07:05.880Z,5.29
2022-11-24T00:08:05.786Z,5.28
2022-11-24T00:09:05.743Z,5.29
2022-11-24T00:10:05.731Z,5.30
2022-11-24T00:11:05.715Z,5.30
2022-11-24T00:12:05.714Z,5.30
2022-11-24T00:13:05.685Z,5.32
2022-11-24T00:14:05.673Z,5.30
2022-11-24T00:15:05.669Z,5.32
2022-11-24T00:16:05.658Z,5.32
2022-11-24T00:17:05.686Z,5.32
2022-11-24T00:18:05.624Z,5.30
2022-11-24T00:19:05.608Z,5.32
2022-11-24T00:20:05.598Z,5.30
2022-11-24T00:21:05.579Z,5.29
2022-11-24T00:22:05.585Z,5.29
2022-11-24T00:23:05.559Z,5.29
2022-11-24T00:24:05.562Z,5.30
2022-11-24T00:25:05.536Z,5.32
2022-11-24T00:26:05.521Z,5.28
2022-11-24T00:27:05.506Z,5.28
2022-11-24T00:28:05.490Z,5.26
2022-11-24T00:29:05.481Z,5.25
2022-11-24T00:30:05.468Z,5.25
2022-11-24T00:31:05.499Z,5.23
2022-11-24T00:32:05.443Z,5.21
2022-11-24T00:33:05.429Z,5.18
2022-11-24T00:34:05.416Z,5.18
2022-11-24T00:35:05.398Z,5.15
2022-11-24T00:36:05.385Z,5.12
2022-11-24T00:37:05.370Z,5.11
2022-11-24T00:38:05.355Z,5.10
2022-11-24T00:39:05.355Z,5.08
2022-11-24T00:40:05.459Z,5.08
2022-11-24T00:41:05.321Z,5.08
2022-11-24T00:42:05.303Z,5.10
2022-11-24T00:43:05.290Z,5.10
2022-11-24T00:44:05.285Z,5.11
2022-11-24T00:45:13.556Z,5.08
2022-11-24T00:46:06.475Z,5.10
2022-11-24T00:47:05.369Z,5.08
2022-11-24T00:48:05.224Z,5.07
2022-11-24T00:49:05.221Z,5.04
2022-11-24T00:50:05.203Z,5.04
2022-11-24T00:51:05.193Z,5.00
2022-11-24T00:52:05.184Z,5.00
2022-11-24T00:53:05.164Z,4.99
2022-11-24T00:54:05.145Z,4.97
2022-11-24T00:55:05.145Z,4.96
2022-11-24T00:56:05.150Z,4.93
2022-11-24T00:57:05.109Z,4.93
2022-11-24T00:58:05.099Z,4.92
2022-11-24T00:59:05.100Z,4.92
2022-11-24T01:00:05.077Z,4.89
2022-11-24T01:01:05.152Z,4.90
2022-11-24T01:02:05.140Z,4.89
2022-11-24T01:03:05.050Z,4.90
2022-11-24T01:04:05.023Z,4.89
2022-11-24T01:05:05.007Z,4.92
2022-11-24T01:06:04.999Z,4.87
2022-11-24T01:07:04.981Z,4.87
2022-11-24T01:08:04.966Z,4.82
2022-11-24T01:09:04.956Z,4.80
2022-11-24T01:10:04.947Z,4.77
2022-11-24T01:11:04.924Z,4.75
2022-11-24T01:12:04.938Z,4.71
2022-11-24T01:13:04.897Z,4.67
2022-11-24T01:14:04.881Z,4.62
2022-11-24T01:15:04.875Z,4.59
2022-11-24T01:16:04.939Z,4.53
2022-11-24T01:17:04.850Z,4.42
2022-11-24T01:18:04.834Z,4.35
2022-11-24T01:19:04.820Z,4.32
2022-11-24T01:20:04.801Z,4.28
2022-11-24T01:21:09.803Z,4.23
2022-11-24T01:22:04.787Z,4.20
2022-11-24T01:23:04.770Z,4.16
2022-11-24T01:24:04.751Z,4.13
2022-11-24T01:25:04.743Z,4.13
2022-11-24T01:26:04.730Z,4.12
2022-11-24T01:27:04.716Z,4.12
2022-11-24T01:28:04.729Z,4.14
2022-11-24T01:29:04.688Z,4.14
2022-11-24T01:30:04.678Z,4.14
2022-11-24T01:31:04.727Z,4.14
2022-11-24T01:32:04.655Z,4.16
2022-11-24T01:33:04.652Z,4.14
2022-11-24T01:34:04.631Z,4.13
2022-11-24T01:35:04.619Z,4.12
2022-11-24T01:36:04.597Z,4.06
2022-11-24T01:37:04.587Z,4.06
2022-11-24T01:38:04.575Z,4.05
2022-11-24T01:39:04.565Z,4.05
2022-11-24T01:40:04.542Z,4.01
2022-11-24T01:41:04.537Z,3.99
2022-11-24T01:42:04.519Z,3.96
2022-11-24T01:43:04.507Z,3.98
2022-11-24T01:44:04.516Z,3.96
2022-11-24T01:45:04.478Z,3.95
2022-11-24T01:46:04.511Z,3.94
2022-11-24T01:47:04.451Z,3.96
2022-11-24T01:48:04.446Z,3.96
2022-11-24T01:49:04.426Z,3.98
2022-11-24T01:50:04.413Z,3.98
2022-11-24T01:51:04.397Z,3.98
2022-11-24T01:52:04.397Z,3.98
2022-11-24T01:53:04.375Z,3.99
2022-11-24T01:54:04.362Z,3.95
2022-11-24T01:55:04.346Z,3.92
2022-11-24T01:56:04.335Z,3.91
2022-11-24T01:57:04.325Z,3.88
2022-11-24T01:58:04.318Z,3.80
2022-11-24T01:59:04.296Z,3.76
2022-11-24T02:00:04.311Z,3.69
2022-11-24T02:01:04.369Z,3.63
2022-11-24T02:02:04.307Z,3.59
2022-11-24T02:03:04.300Z,3.56
2022-11-24T02:04:04.235Z,3.53
2022-11-24T02:05:04.220Z,3.50
2022-11-24T02:06:04.216Z,3.50
2022-11-24T02:07:04.195Z,3.48
2022-11-24T02:08:04.188Z,3.48
2022-11-24T02:09:04.169Z,3.47
2022-11-24T02:10:04.157Z,3.48
2022-11-24T02:11:04.143Z,3.48
2022-11-24T02:12:04.129Z,3.47
2022-11-24T02:13:04.116Z,3.45
2022-11-24T02:14:04.109Z,3.44
2022-11-24T02:15:04.093Z,3.42
2022-11-24T02:16:04.165Z,3.40
2022-11-24T02:17:04.072Z,3.36
2022-11-24T02:18:04.052Z,3.36
2022-11-24T02:19:04.045Z,3.29
2022-11-24T02:20:04.037Z,3.25
2022-11-24T02:21:04.017Z,3.22
2022-11-24T02:22:04.005Z,3.16
2022-11-24T02:23:03.984Z,3.13
2022-11-24T02:24:03.975Z,3.11
2022-11-24T02:25:03.962Z,3.11
2022-11-24T02:26:03.954Z,3.18
2022-11-24T02:27:03.941Z,3.19
2022-11-24T02:28:03.929Z,3.21
2022-11-24T02:29:03.916Z,3.26
2022-11-24T02:30:03.899Z,3.31
2022-11-24T02:31:03.924Z,3.36
2022-11-24T02:32:03.901Z,3.40
2022-11-24T02:33:03.862Z,3.41
2022-11-24T02:34:03.861Z,3.44
2022-11-24T02:35:03.839Z,3.47
2022-11-24T02:36:03.827Z,3.48
2022-11-24T02:37:03.809Z,3.48
2022-11-24T02:38:03.801Z,3.48
2022-11-24T02:39:03.787Z,3.53
2022-11-24T02:40:03.770Z,3.55
2022-11-24T02:41:03.763Z,3.56
2022-11-24T02:42:03.745Z,3.56
2022-11-24T02:43:03.733Z,3.58
2022-11-24T02:44:03.719Z,3.58
2022-11-24T02:45:03.709Z,3.59
2022-11-24T02:46:03.773Z,3.58
2022-11-24T02:47:03.678Z,3.55
2022-11-24T02:48:03.691Z,3.55
2022-11-24T02:49:03.661Z,3.53
2022-11-24T02:50:03.639Z,3.48
2022-11-24T02:51:03.630Z,3.47
2022-11-24T02:52:03.630Z,3.45
2022-11-24T02:53:03.602Z,3.44
2022-11-24T02:54:03.590Z,3.42
2022-11-24T02:55:03.575Z,3.42
2022-11-24T02:56:03.566Z,3.42
2022-11-24T02:57:03.549Z,3.41
2022-11-24T02:58:03.544Z,3.41
2022-11-24T02:59:03.526Z,3.40
2022-11-24T03:00:03.511Z,3.40
2022-11-24T03:01:03.556Z,3.41
2022-11-24T03:02:03.650Z,3.44
2022-11-24T03:03:03.563Z,3.45
2022-11-24T03:04:03.482Z,3.47
2022-11-24T03:05:03.448Z,3.50
2022-11-24T03:06:03.434Z,3.51
2022-11-24T03:07:03.422Z,3.50
2022-11-24T03:08:03.414Z,3.50
2022-11-24T03:09:03.402Z,3.48
2022-11-24T03:10:03.382Z,3.50
2022-11-24T03:11:03.368Z,3.51
2022-11-24T03:12:03.361Z,3.56
2022-11-24T03:13:03.341Z,3.60
2022-11-24T03:14:03.332Z,3.65
2022-11-24T03:15:03.320Z,3.65
2022-11-24T03:16:03.350Z,3.68
2022-11-24T03:17:03.295Z,3.70
2022-11-24T03:18:03.294Z,3.70
2022-11-24T03:19:03.268Z,3.73
2022-11-24T03:20:05.210Z,3.80
2022-11-24T03:21:03.240Z,3.86
2022-11-24T03:22:03.221Z,3.91
2022-11-24T03:23:03.206Z,3.95
2022-11-24T03:24:03.202Z,3.98
2022-11-24T03:25:03.185Z,4.01
2022-11-24T03:26:03.171Z,3.99
2022-11-24T03:27:03.153Z,4.04
2022-11-24T03:28:03.141Z,4.08
2022-11-24T03:29:03.129Z,4.12
2022-11-24T03:30:03.121Z,4.12
2022-11-24T03:31:03.194Z,4.14
2022-11-24T03:32:03.096Z,4.16
2022-11-24T03:33:03.085Z,4.19
2022-11-24T03:34:03.062Z,4.23
2022-11-24T03:35:03.049Z,4.24
2022-11-24T03:36:03.055Z,4.24
2022-11-24T03:37:03.024Z,4.24
2022-11-24T03:38:03.011Z,4.23
2022-11-24T03:39:03.002Z,4.24
2022-11-24T03:40:02.982Z,4.23
2022-11-24T03:41:02.976Z,4.23
2022-11-24T03:42:02.959Z,4.22
2022-11-24T03:43:02.947Z,4.22
2022-11-24T03:44:02.931Z,4.23
2022-11-24T03:45:29.774Z,4.23
2022-11-24T03:46:04.017Z,4.22
2022-11-24T03:47:02.884Z,4.20
2022-11-24T03:48:02.873Z,4.20
2022-11-24T03:49:02.862Z,4.19
2022-11-24T03:50:02.846Z,4.17
2022-11-24T03:51:02.831Z,4.16
2022-11-24T03:52:07.766Z,4.14
2022-11-24T03:53:02.804Z,4.13
2022-11-24T03:54:02.790Z,4.13
2022-11-24T03:55:02.781Z,4.12
2022-11-24T03:56:02.767Z,4.12
2022-11-24T03:57:02.754Z,4.12
2022-11-24T03:58:02.743Z,4.13
2022-11-24T03:59:02.730Z,4.14
2022-11-24T04:00:02.726Z,4.16
2022-11-24T04:01:02.711Z,4.16
2022-11-24T04:02:02.770Z,4.14
2022-11-24T04:03:02.766Z,4.13
2022-11-24T04:04:02.670Z,4.13
2022-11-24T04:05:02.650Z,4.12
2022-11-24T04:06:02.635Z,4.12
2022-11-24T04:07:02.629Z,4.16
2022-11-24T04:08:02.651Z,4.19
2022-11-24T04:09:02.598Z,4.19
2022-11-24T04:10:02.580Z,4.19
2022-11-24T04:11:02.565Z,4.22
2022-11-24T04:12:02.562Z,4.23
2022-11-24T04:13:02.542Z,4.23
2022-11-24T04:14:02.530Z,4.23
2022-11-24T04:15:02.522Z,4.26
2022-11-24T04:16:02.517Z,4.26
2022-11-24T04:17:02.492Z,4.26
2022-11-24T04:18:02.477Z,4.26
2022-11-24T04:19:02.461Z,4.24
2022-11-24T04:20:02.459Z,4.23
2022-11-24T04:21:02.444Z,4.22
2022-11-24T04:22:02.425Z,4.23
2022-11-24T04:23:02.424Z,4.26
2022-11-24T04:24:02.415Z,4.28
2022-11-24T04:25:02.385Z,4.28
2022-11-24T04:26:02.367Z,4.26
2022-11-24T04:27:02.353Z,4.30
2022-11-24T04:28:02.337Z,4.31
2022-11-24T04:29:02.325Z,4.30
2022-11-24T04:30:02.320Z,4.28
2022-11-24T04:31:02.338Z,4.30
2022-11-24T04:32:02.290Z,4.31
2022-11-24T04:33:02.278Z,4.30
2022-11-24T04:34:02.257Z,4.31
2022-11-24T04:35:02.248Z,4.30
2022-11-24T04:36:02.235Z,4.31
2022-11-24T04:37:02.220Z,4.31
2022-11-24T04:38:02.208Z,4.26
2022-11-24T04:39:23.899Z,4.24
2022-11-24T04:40:03.233Z,4.23
2022-11-24T04:41:02.169Z,4.23
2022-11-24T04:42:02.155Z,4.23
2022-11-24T04:43:02.146Z,4.22
2022-11-24T04:44:02.128Z,4.22
2022-11-24T04:45:02.139Z,4.19
2022-11-24T04:46:02.106Z,4.19
2022-11-24T04:47:02.173Z,4.17
2022-11-24T04:48:02.076Z,4.14
2022-11-24T04:49:02.069Z,4.16
2022-11-24T04:50:02.056Z,4.14
2022-11-24T04:51:02.032Z,4.14
2022-11-24T04:52:02.029Z,4.14
2022-11-24T04:53:02.007Z,4.16
2022-11-24T04:54:02.004Z,4.14
2022-11-24T04:55:01.979Z,4.14
2022-11-24T04:56:01.989Z,4.13
2022-11-24T04:57:01.958Z,4.13
2022-11-24T04:58:01.940Z,4.12
2022-11-24T04:59:07.835Z,4.12
2022-11-24T05:00:02.966Z,4.08
2022-11-24T05:01:01.902Z,4.05
2022-11-24T05:02:01.927Z,4.04
2022-11-24T05:03:01.875Z,4.04
2022-11-24T05:04:01.925Z,4.02
2022-11-24T05:05:01.846Z,4.01
2022-11-24T05:06:01.833Z,3.99
2022-11-24T05:07:01.823Z,3.99
2022-11-24T05:08:01.980Z,3.98
2022-11-24T05:09:01.792Z,3.96
2022-11-24T05:10:01.789Z,3.94
2022-11-24T05:11:01.769Z,3.95
2022-11-24T05:12:01.775Z,3.91
2022-11-24T05:13:01.746Z,3.91
2022-11-24T05:14:01.736Z,3.91
2022-11-24T05:15:01.730Z,3.88
2022-11-24T05:16:01.911Z,3.88
2022-11-24T05:17:01.690Z,3.88
2022-11-24T05:18:01.696Z,3.86
2022-11-24T05:19:01.659Z,3.87
2022-11-24T05:20:01.692Z,3.87
2022-11-24T05:21:01.639Z,3.86
2022-11-24T05:22:01.626Z,3.83
2022-11-24T05:23:01.605Z,3.83
2022-11-24T05:24:01.600Z,3.83
2022-11-24T05:25:01.576Z,3.83
2022-11-24T05:26:01.575Z,3.81
2022-11-24T05:27:01.569Z,3.83
2022-11-24T05:28:01.599Z,3.83
2022-11-24T05:29:01.527Z,3.81
2022-11-24T05:30:01.513Z,3.84
2022-11-24T05:31:01.612Z,3.95
2022-11-24T05:32:01.491Z,3.99
2022-11-24T05:33:01.479Z,4.02
2022-11-24T05:34:01.458Z,4.01
2022-11-24T05:35:01.449Z,4.05
2022-11-24T05:36:01.434Z,4.06
2022-11-24T05:37:01.428Z,4.10
2022-11-24T05:38:01.409Z,4.12
2022-11-24T05:39:01.407Z,4.19
2022-11-24T05:40:01.381Z,4.24
2022-11-24T05:41:01.377Z,4.26
2022-11-24T05:42:01.372Z,4.26
2022-11-24T05:43:01.337Z,4.24
2022-11-24T05:44:01.353Z,4.24
2022-11-24T05:45:01.316Z,4.24
2022-11-24T05:46:01.299Z,4.23
2022-11-24T05:47:01.350Z,4.24
2022-11-24T05:48:01.276Z,4.23
2022-11-24T05:49:01.265Z,4.23
2022-11-24T05:50:01.246Z,4.24
2022-11-24T05:51:05.162Z,4.26
2022-11-24T05:52:02.256Z,4.26
2022-11-24T05:53:01.216Z,4.31
2022-11-24T05:54:01.199Z,4.30
2022-11-24T05:55:01.177Z,4.30
2022-11-24T05:56:01.165Z,4.30
2022-11-24T05:57:01.147Z,4.32
2022-11-24T05:58:01.148Z,4.31
2022-11-24T05:59:05.356Z,4.31
2022-11-24T06:00:02.167Z,4.28
2022-11-24T06:01:01.104Z,4.32
2022-11-24T06:02:01.219Z,4.32
2022-11-24T06:03:01.263Z,4.34
2022-11-24T06:04:01.071Z,4.34
2022-11-24T06:05:01.047Z,4.37
2022-11-24T06:06:01.033Z,4.37
2022-11-24T06:07:01.024Z,4.38
2022-11-24T06:08:01.010Z,4.38
2022-11-24T06:09:00.996Z,4.41
2022-11-24T06:10:01.000Z,4.42
2022-11-24T06:11:00.980Z,4.44
2022-11-24T06:12:00.954Z,4.48
2022-11-24T06:13:00.950Z,4.52
2022-11-24T06:14:00.923Z,4.55
2022-11-24T06:15:00.937Z,4.56
2022-11-24T06:16:00.997Z,4.60
2022-11-24T06:17:00.893Z,4.59
2022-11-24T06:18:00.865Z,4.62
2022-11-24T06:19:00.859Z,4.67
2022-11-24T06:20:00.839Z,4.70
2022-11-24T06:21:10.873Z,4.70
2022-11-24T06:22:01.870Z,4.68
2022-11-24T06:23:00.818Z,4.70
2022-11-24T06:24:00.791Z,4.70
2022-11-24T06:25:00.778Z,4.68
2022-11-24T06:26:00.760Z,4.66
2022-11-24T06:27:00.746Z,4.63
2022-11-24T06:28:00.730Z,4.66
2022-11-24T06:29:00.725Z,4.62
2022-11-24T06:30:00.704Z,4.59
2022-11-24T06:31:00.697Z,4.59
2022-11-24T06:32:00.775Z,4.59
2022-11-24T06:33:00.665Z,4.56
2022-11-24T06:34:00.653Z,4.56
2022-11-24T06:35:00.647Z,4.56
2022-11-24T06:36:00.634Z,4.53
2022-11-24T06:37:00.621Z,4.55
2022-11-24T06:38:00.606Z,4.55
2022-11-24T06:39:00.597Z,4.53
2022-11-24T06:40:00.572Z,4.52
2022-11-24T06:41:00.572Z,4.52
2022-11-24T06:42:00.544Z,4.53
2022-11-24T06:43:00.546Z,4.53
2022-11-24T06:44:00.520Z,4.53
2022-11-24T06:45:00.522Z,4.56
2022-11-24T06:46:00.537Z,4.58
2022-11-24T06:47:00.478Z,4.59
2022-11-24T06:48:00.494Z,4.62
2022-11-24T06:49:00.455Z,4.66
2022-11-24T06:50:00.453Z,4.66
2022-11-24T06:51:00.436Z,4.68
2022-11-24T06:52:00.417Z,4.68
2022-11-24T06:53:00.401Z,4.70
2022-11-24T06:54:00.391Z,4.71
2022-11-24T06:55:00.387Z,4.73
2022-11-24T06:56:00.351Z,4.74
2022-11-24T06:57:00.348Z,4.75
2022-11-24T06:58:00.341Z,4.75
2022-11-24T06:59:00.340Z,4.77
2022-11-24T07:00:00.323Z,4.77
2022-11-24T07:01:00.369Z,4.74
2022-11-24T07:02:00.296Z,4.75
2022-11-24T07:03:00.324Z,4.75
2022-11-24T07:04:00.279Z,4.75
2022-11-24T07:05:00.249Z,4.75
2022-11-24T07:06:00.225Z,4.77
2022-11-24T07:07:00.220Z,4.77
2022-11-24T07:08:00.207Z,4.77
2022-11-24T07:09:00.202Z,4.80
2022-11-24T07:10:00.196Z,4.80
2022-11-24T07:11:00.162Z,4.78
2022-11-24T07:12:00.151Z,4.77
2022-11-24T07:13:00.141Z,4.78
2022-11-24T07:14:00.432Z,4.77
2022-11-24T07:15:00.115Z,4.77
2022-11-24T07:16:00.213Z,4.77
2022-11-24T07:17:00.128Z,4.80
2022-11-24T07:18:00.079Z,4.82
2022-11-24T07:19:00.059Z,4.82
2022-11-24T07:20:00.087Z,4.82
2022-11-24T07:21:00.045Z,4.84
2022-11-24T07:22:00.034Z,4.80
2022-11-24T07:23:00.007Z,4.82
2022-11-24T07:23:59.987Z,4.82
2022-11-24T07:24:59.985Z,4.84
2022-11-24T07:26:05.237Z,4.84
2022-11-24T07:27:00.989Z,4.86
2022-11-24T07:27:59.936Z,4.87
2022-11-24T07:28:59.929Z,4.87
2022-11-24T07:29:59.909Z,4.90
2022-11-24T07:30:59.894Z,4.92
2022-11-24T07:32:05.251Z,4.90
2022-11-24T07:32:59.878Z,4.93
2022-11-24T07:33:59.863Z,4.93
2022-11-24T07:34:59.853Z,4.94
2022-11-24T07:35:59.865Z,4.96
2022-11-24T07:36:59.819Z,4.97
2022-11-24T07:37:59.800Z,4.97
2022-11-24T07:38:59.787Z,5.00
2022-11-24T07:39:59.787Z,5.02
2022-11-24T07:40:59.759Z,5.04
2022-11-24T07:41:59.749Z,5.05
2022-11-24T07:42:59.741Z,5.08
2022-11-24T07:43:59.726Z,5.07
2022-11-24T07:44:59.714Z,5.08
2022-11-24T07:45:59.760Z,5.10
2022-11-24T07:46:59.681Z,5.11
2022-11-24T07:47:59.679Z,5.10
2022-11-24T07:48:59.664Z,5.12
2022-11-24T07:49:59.651Z,5.11
2022-11-24T07:50:59.645Z,5.14
2022-11-24T07:51:59.654Z,5.15
2022-11-24T07:52:59.606Z,5.18
2022-11-24T07:53:59.592Z,5.18
2022-11-24T07:54:59.579Z,5.18
2022-11-24T07:55:59.571Z,5.18
2022-11-24T07:56:59.552Z,5.20
2022-11-24T07:57:59.545Z,5.20
2022-11-24T07:58:59.528Z,5.23
2022-11-24T07:59:59.520Z,5.20
2022-11-24T08:00:59.499Z,5.21
2022-11-24T08:01:59.505Z,5.21
2022-11-24T08:02:59.477Z,5.21
2022-11-24T08:03:59.484Z,5.23
2022-11-24T08:04:59.445Z,5.25
2022-11-24T08:06:59.421Z,5.26
2022-11-24T08:07:59.475Z,5.26
2022-11-24T08:08:59.397Z,5.29
2022-11-24T08:09:59.384Z,5.28
2022-11-24T08:10:59.372Z,5.28
2022-11-24T08:11:59.355Z,5.28
2022-11-24T08:12:59.343Z,5.30
2022-11-24T08:13:59.329Z,5.30
2022-11-24T08:14:59.322Z,5.32
2022-11-24T08:15:59.296Z,5.33
2022-11-24T08:16:59.359Z,5.36
2022-11-24T08:17:59.275Z,5.43
2022-11-24T08:18:59.264Z,5.46
2022-11-24T08:19:59.260Z,5.46
2022-11-24T08:20:59.231Z,5.47
2022-11-24T08:21:59.215Z,5.47
2022-11-24T08:22:59.745Z,5.47
2022-11-24T08:23:59.230Z,5.44
2022-11-24T08:24:59.182Z,5.46
2022-11-24T08:25:59.175Z,5.43
2022-11-24T08:26:59.161Z,5.43
2022-11-24T08:27:59.141Z,5.43
2022-11-24T08:28:59.131Z,5.43
2022-11-24T08:29:59.126Z,5.43
2022-11-24T08:30:59.098Z,5.46
2022-11-24T08:31:59.147Z,5.48
2022-11-24T08:32:59.080Z,5.50
2022-11-24T08:33:59.068Z,5.53
2022-11-24T08:35:08.600Z,5.53
2022-11-24T08:36:00.087Z,5.59
2022-11-24T08:36:59.017Z,5.62
2022-11-24T08:38:04.437Z,5.65
2022-11-24T08:38:59.002Z,5.62
2022-11-24T08:39:59.014Z,5.61
2022-11-24T08:40:58.975Z,5.61
2022-11-24T08:41:58.952Z,5.61
2022-11-24T08:42:58.947Z,5.61
2022-11-24T08:43:58.937Z,5.61
2022-11-24T08:44:59.343Z,5.59
2022-11-24T08:45:58.967Z,5.59
2022-11-24T08:46:58.881Z,5.56
2022-11-24T08:47:58.878Z,5.53
2022-11-24T08:48:58.871Z,5.53
2022-11-24T08:49:58.851Z,5.50
2022-11-24T08:50:58.849Z,5.51
2022-11-24T08:51:58.822Z,5.56
2022-11-24T08:52:58.814Z,5.64
2022-11-24T08:53:58.834Z,5.72
2022-11-24T08:54:58.790Z,5.80
2022-11-24T08:55:58.796Z,5.80
2022-11-24T08:56:58.766Z,5.79
2022-11-24T08:57:58.741Z,5.75
2022-11-24T08:58:58.870Z,5.75
2022-11-24T08:59:58.725Z,5.79
2022-11-24T09:00:58.719Z,5.84
2022-11-24T09:01:58.770Z,5.90
2022-11-24T09:02:58.675Z,5.91
2022-11-24T09:03:58.741Z,5.87
2022-11-24T09:04:58.652Z,5.82
2022-11-24T09:05:58.636Z,5.82
2022-11-24T09:06:58.637Z,5.80
2022-11-24T09:07:58.700Z,5.76
2022-11-24T09:08:58.600Z,5.79
2022-11-24T09:09:58.578Z,5.79
2022-11-24T09:10:58.576Z,5.79
2022-11-24T09:11:58.585Z,5.79
2022-11-24T09:12:58.541Z,5.82
2022-11-24T09:13:58.540Z,5.80
2022-11-24T09:14:58.525Z,5.76
2022-11-24T09:15:58.516Z,5.75
2022-11-24T09:16:58.700Z,5.76
2022-11-24T09:17:58.476Z,5.86
2022-11-24T09:18:58.467Z,5.97
2022-11-24T09:19:58.452Z,6.07
2022-11-24T09:20:58.452Z,6.16
2022-11-24T09:21:58.429Z,6.26
2022-11-24T09:22:58.415Z,6.33
2022-11-24T09:23:58.396Z,6.57
2022-11-24T09:24:58.390Z,7.18
2022-11-24T09:25:58.374Z,7.51
2022-11-24T09:26:58.368Z,7.54
2022-11-24T09:27:58.374Z,7.53
2022-11-24T09:28:58.333Z,7.54
2022-11-24T09:29:58.321Z,7.66
2022-11-24T09:30:58.360Z,7.80
2022-11-24T09:32:03.498Z,8.26
2022-11-24T09:32:59.316Z,8.89
2022-11-24T09:33:58.275Z,9.40
2022-11-24T09:34:58.249Z,9.64
2022-11-24T09:35:58.254Z,9.92
2022-11-24T09:36:58.238Z,10.31
2022-11-24T09:37:58.227Z,10.67
2022-11-24T09:38:58.200Z,10.71
2022-11-24T09:39:58.201Z,10.67
2022-11-24T09:40:58.179Z,10.16
2022-11-24T09:41:58.181Z,9.69
2022-11-24T09:42:58.158Z,9.47
2022-11-24T09:43:58.162Z,9.28
2022-11-24T09:44:58.138Z,9.13
2022-11-24T09:46:05.459Z,8.95
2022-11-24T09:46:59.223Z,8.82
2022-11-24T09:47:58.091Z,8.53
2022-11-24T09:48:58.076Z,8.31
2022-11-24T09:49:58.079Z,7.98
2022-11-24T09:50:58.049Z,7.77
2022-11-24T09:51:58.051Z,7.58
2022-11-24T09:52:58.029Z,7.45
2022-11-24T09:53:58.020Z,7.31
2022-11-24T09:54:58.007Z,7.20
2022-11-24T09:55:57.990Z,7.15
2022-11-24T09:56:57.973Z,7.15
2022-11-24T09:57:57.962Z,7.14
2022-11-24T09:58:57.957Z,7.07
2022-11-24T09:59:57.964Z,7.06
2022-11-24T10:00:57.973Z,7.11
2022-11-24T10:01:58.030Z,7.07
2022-11-24T10:02:57.906Z,7.20
2022-11-24T10:04:04.275Z,7.17
2022-11-24T10:04:58.968Z,7.11
2022-11-24T10:05:57.871Z,7.06
2022-11-24T10:06:57.870Z,7.02
2022-11-24T10:07:57.984Z,7.06
2022-11-24T10:08:57.821Z,7.15
2022-11-24T10:09:57.804Z,7.18
2022-11-24T10:10:57.797Z,7.11
2022-11-24T10:11:57.785Z,7.17
2022-11-24T10:12:57.782Z,7.23
2022-11-24T10:13:57.765Z,7.35
2022-11-24T10:14:57.757Z,7.32
2022-11-24T10:15:57.860Z,7.33
2022-11-24T10:16:57.733Z,7.31
2022-11-24T10:17:57.712Z,7.29
2022-11-24T10:18:57.701Z,7.21
2022-11-24T10:19:57.694Z,7.20
2022-11-24T10:20:57.674Z,7.25
2022-11-24T10:21:57.651Z,7.24
2022-11-24T10:22:57.646Z,7.38
2022-11-24T10:23:57.644Z,7.56
2022-11-24T10:24:57.623Z,7.79
2022-11-24T10:25:57.614Z,7.98
2022-11-24T10:26:57.598Z,8.09
2022-11-24T10:27:57.600Z,8.31
2022-11-24T10:28:57.571Z,8.60
2022-11-24T10:29:57.566Z,8.82
2022-11-24T10:30:57.698Z,9.04
2022-11-24T10:31:57.564Z,9.26
2022-11-24T10:32:57.522Z,9.55
2022-11-24T10:33:57.534Z,9.54
2022-11-24T10:34:57.492Z,9.34
2022-11-24T10:35:57.480Z,9.26
2022-11-24T10:36:57.470Z,9.25
2022-11-24T10:37:57.455Z,9.40
2022-11-24T10:38:57.445Z,9.56
2022-11-24T10:40:00.204Z,9.84
2022-11-24T10:40:58.235Z,9.95
2022-11-24T10:41:57.407Z,10.02
2022-11-24T10:42:57.407Z,9.91
2022-11-24T10:43:57.376Z,10.10
2022-11-24T10:44:57.367Z,9.91
2022-11-24T10:45:57.399Z,9.92
2022-11-24T10:46:57.398Z,9.79
2022-11-24T10:47:57.351Z,9.59
2022-11-24T10:48:57.329Z,9.43
2022-11-24T10:49:57.313Z,9.36
2022-11-24T10:50:57.295Z,9.19
2022-11-24T10:51:57.284Z,8.92
2022-11-24T10:52:57.259Z,8.84
2022-11-24T10:53:59.693Z,8.63
2022-11-24T10:54:57.235Z,8.45
2022-11-24T10:55:57.229Z,8.30
2022-11-24T10:56:57.221Z,8.16
2022-11-24T10:57:57.201Z,8.10
2022-11-24T10:58:57.189Z,8.03
2022-11-24T10:59:57.181Z,7.95
2022-11-24T11:00:57.299Z,7.87
2022-11-24T11:01:57.261Z,7.80
2022-11-24T11:02:57.194Z,7.76
2022-11-24T11:03:57.158Z,7.70
2022-11-24T11:04:57.107Z,7.75
2022-11-24T11:05:57.105Z,7.77
2022-11-24T11:06:57.080Z,7.85
2022-11-24T11:08:00.921Z,7.97
2022-11-24T11:08:58.097Z,8.06
2022-11-24T11:09:57.053Z,8.15
2022-11-24T11:10:57.028Z,8.18
2022-11-24T11:11:59.128Z,8.23
2022-11-24T11:12:58.038Z,8.30
2022-11-24T11:14:03.336Z,8.36
2022-11-24T11:14:58.029Z,8.46
2022-11-24T11:15:57.059Z,8.45
2022-11-24T11:16:56.952Z,8.51
2022-11-24T11:17:56.952Z,8.60
2022-11-24T11:18:56.928Z,8.67
2022-11-24T11:20:01.974Z,8.63
2022-11-24T11:20:56.909Z,8.58
2022-11-24T11:21:56.894Z,8.66
2022-11-24T11:22:56.876Z,8.61
2022-11-24T11:23:56.872Z,8.61
2022-11-24T11:24:56.861Z,8.66
2022-11-24T11:25:56.838Z,8.63
2022-11-24T11:26:56.826Z,8.69
2022-11-24T11:27:56.819Z,8.71
2022-11-24T11:28:56.805Z,8.74
2022-11-24T11:34:06.332Z,8.71
2022-11-24T11:34:57.756Z,8.78
2022-11-24T11:35:56.742Z,8.84
2022-11-24T11:36:56.694Z,8.89
2022-11-24T11:37:56.683Z,8.92
2022-11-24T11:38:56.685Z,8.89
2022-11-24T11:39:56.677Z,8.94
2022-11-24T11:40:56.648Z,8.99
2022-11-24T11:41:56.635Z,9.03
2022-11-24T11:43:04.126Z,9.06
2022-11-24T11:43:57.641Z,9.04
2022-11-24T11:44:56.591Z,9.10
2022-11-24T11:45:56.788Z,9.10
2022-11-24T11:46:56.640Z,9.14
2022-11-24T11:47:56.573Z,9.19
2022-11-24T11:48:56.549Z,9.22
2022-11-24T11:49:56.536Z,9.19
2022-11-24T11:51:22.472Z,9.19
2022-11-24T11:51:57.565Z,9.21
2022-11-24T11:52:56.486Z,9.16
2022-11-24T11:53:56.563Z,9.14
2022-11-24T11:54:56.482Z,9.14
2022-11-24T11:55:56.453Z,9.13
2022-11-24T11:56:56.448Z,9.16
2022-11-24T11:57:56.428Z,9.14
2022-11-24T11:58:56.414Z,9.00
2022-11-24T11:59:56.399Z,8.88
2022-11-24T12:00:56.401Z,8.76
2022-11-24T12:01:56.372Z,8.70
2022-11-24T12:02:56.701Z,8.61
2022-11-24T12:03:56.432Z,8.56
2022-11-24T12:04:56.338Z,8.49
2022-11-24T12:05:56.329Z,8.44
2022-11-24T12:06:56.317Z,8.38
2022-11-24T12:07:56.471Z,8.38
2022-11-24T12:09:19.402Z,8.37
2022-11-24T12:09:57.305Z,8.34
2022-11-24T12:10:56.257Z,8.34
2022-11-24T12:11:56.253Z,8.31
2022-11-24T12:12:56.242Z,8.28
2022-11-24T12:13:56.225Z,8.24
2022-11-24T12:14:56.207Z,8.24
2022-11-24T12:15:56.330Z,8.20
2022-11-24T12:16:56.184Z,8.18
2022-11-24T12:17:56.171Z,8.18
2022-11-24T12:18:58.059Z,8.18
2022-11-24T12:19:56.149Z,8.15
2022-11-24T12:20:56.127Z,8.10
2022-11-24T12:21:56.118Z,8.08
2022-11-24T12:22:56.104Z,8.03
2022-11-24T12:23:56.116Z,7.95
2022-11-24T12:24:56.190Z,7.90
2022-11-24T12:25:56.074Z,7.87
2022-11-24T12:26:56.063Z,7.82
2022-11-24T12:27:56.047Z,7.79
2022-11-24T12:28:56.035Z,7.75
2022-11-24T12:29:56.012Z,7.72
2022-11-24T12:30:56.050Z,7.66
2022-11-24T12:31:55.986Z,7.61
2022-11-24T12:32:55.983Z,7.57
2022-11-24T12:34:00.928Z,7.54
2022-11-24T12:34:55.957Z,7.48
2022-11-24T12:35:55.942Z,7.47
2022-11-24T12:36:55.938Z,7.45
2022-11-24T12:37:55.919Z,7.42
2022-11-24T12:38:55.907Z,7.40
2022-11-24T12:39:55.915Z,7.39
2022-11-24T12:41:18.297Z,7.39
2022-11-24T12:41:56.901Z,7.35
2022-11-24T12:42:55.841Z,7.33
2022-11-24T12:43:55.828Z,7.38
2022-11-24T12:44:55.825Z,7.40
2022-11-24T12:45:55.807Z,7.43
2022-11-24T12:46:55.815Z,7.43
2022-11-24T12:47:55.784Z,7.45
2022-11-24T12:48:55.767Z,7.45
2022-11-24T12:49:55.771Z,7.45
2022-11-24T12:50:55.739Z,7.48
2022-11-24T12:51:55.727Z,7.51
2022-11-24T12:52:59.005Z,7.54
2022-11-24T12:53:55.705Z,7.57
2022-11-24T12:54:55.687Z,7.56
2022-11-24T12:55:55.710Z,7.57
2022-11-24T12:56:55.672Z,7.56
2022-11-24T12:57:55.659Z,7.56
2022-11-24T12:58:55.642Z,7.56
2022-11-24T12:59:55.634Z,7.57
2022-11-24T13:00:55.612Z,7.57
2022-11-24T13:01:55.782Z,7.63
2022-11-24T13:02:55.717Z,7.72
2022-11-24T13:03:55.576Z,7.75
2022-11-24T13:04:55.564Z,7.83
2022-11-24T13:05:55.553Z,7.93
2022-11-24T13:06:55.537Z,7.98
2022-11-24T13:07:55.685Z,8.09
2022-11-24T13:08:55.529Z,8.16
2022-11-24T13:09:55.502Z,8.19
2022-11-24T13:10:57.411Z,8.23
2022-11-24T13:11:59.184Z,8.20
2022-11-24T13:12:56.488Z,8.20
2022-11-24T13:13:55.442Z,8.18
2022-11-24T13:14:55.441Z,8.13
2022-11-24T13:18:08.581Z,8.09
2022-11-24T13:18:56.508Z,8.15
2022-11-24T13:19:55.376Z,8.16
2022-11-24T13:20:55.355Z,8.23
2022-11-24T13:21:55.337Z,8.28
2022-11-24T13:22:55.326Z,8.33
2022-11-24T13:23:55.317Z,8.36
2022-11-24T13:24:55.316Z,8.42